Austin Reinauer — WCX8055 — position and weather

sailwx.info

Track history (hours):
 
Tides and Currents Weather Stations Pressure Air Temp Water Temp Dewpoint Dewpoint Depression Visibility Wind Speed Wind Dir Waves Ship Positions

Austin Reinauer

Owner: REINAUER TRANSPORTATION CO, LP, STATEN ISLAND, NY. More information available from US FCC via Universal Licensing System and Coast Guard Vessel Documentation Center.

Last reported at 2016-Feb-12 08:13 UTC. Time now 2016-Feb-12 09:53 UTC.
Position N 40°52' W 073°57'.

Length 33 m; draft 6.7 m.

Type: Ship (hazmat cat B). MMSI: 366739920.

Date/timePositionNaut miles runAvg speedWind from/ knotsBaromVisibWave heightAir tempDewpointWater temp
2016-Feb-12 08:13N 40°52' W 073°57'5 7.1
2016-Feb-12 07:31N 40°47' W 073°59'8 8.1
2016-Feb-12 06:34N 40°40' W 074°03'8 0.3
2016-Feb-11 00:29N 40°37' W 074°12'6 6.2
2016-Feb-10 23:33N 40°39' W 074°05'2 2.3
2016-Feb-10 22:29N 40°40' W 074°02'0 0.0
2016-Feb-10 21:26N 40°40' W 074°02'0 0.1
2016-Feb-10 20:32N 40°40' W 074°02'0 0.0
2016-Feb-10 19:23N 40°40' W 074°02'0 0.0
2016-Feb-10 18:29N 40°40' W 074°02'0 0.1
2016-Feb-10 17:29N 40°40' W 074°02'0 0.1
2016-Feb-10 16:20N 40°40' W 074°02'0 0.0
2016-Feb-10 15:29N 40°40' W 074°02'0 0.0
2016-Feb-10 14:32N 40°40' W 074°02'0 0.0
2016-Feb-10 13:32N 40°40' W 074°02'0 0.0
2016-Feb-10 12:32N 40°40' W 074°02'0 0.0
2016-Feb-10 11:32N 40°40' W 074°02'0 0.1
2016-Feb-10 10:32N 40°40' W 074°02'0 0.1
2016-Feb-10 09:32N 40°40' W 074°02'0 0.0
2016-Feb-10 08:32N 40°40' W 074°02'0 0.0
2016-Feb-10 07:32N 40°40' W 074°02'0 0.0
2016-Feb-10 06:32N 40°40' W 074°02'27 8.8
2016-Feb-10 03:31N 40°56' W 073°35'1111.3
2016-Feb-10 02:33N 41°01' W 073°22'1211.5
2016-Feb-10 01:32N 41°02' W 073°06'1311.4
2016-Feb-10 00:23N 41°05' W 072°49'911.0
2016-Feb-09 23:34N 41°07' W 072°38'1110.6
2016-Feb-09 22:34N 41°10' W 072°24'9 9.0
2016-Feb-09 21:33N 41°13' W 072°13'38 8.6
2016-Feb-09 17:10N 41°24' W 071°24'711.5
2016-Feb-09 16:33N 41°31' W 071°21'1111.2
2016-Feb-09 15:33N 41°40' W 071°12'1 0.4
2016-Feb-09 14:13N 41°40' W 071°12'0 0.0
2016-Feb-09 13:33N 41°40' W 071°12'0 0.0
2016-Feb-09 12:33N 41°40' W 071°12'0 0.0
2016-Feb-09 11:33N 41°40' W 071°12'0 0.0
2016-Feb-09 10:33N 41°40' W 071°12'0 0.0
2016-Feb-09 09:33N 41°40' W 071°12'0 0.0
2016-Feb-09 08:33N 41°40' W 071°12'0 0.1
2016-Feb-09 07:33N 41°40' W 071°12'8 7.8
2016-Feb-09 06:32N 41°34' W 071°19'37 7.4
2016-Feb-09 01:30N 41°14' W 072°01'7 7.4
2016-Feb-09 00:34N 41°14' W 072°10'8 8.2
2016-Feb-08 23:33N 41°11' W 072°20'9 9.2
2016-Feb-08 22:33N 41°08' W 072°32'20 0.6
2016-Feb-07 13:26N 41°10' W 072°58'7 8.2
2016-Feb-07 12:33N 41°06' W 073°06'8 8.4
2016-Feb-07 11:33N 41°03' W 073°16'9 8.8
2016-Feb-07 10:33N 40°59' W 073°27'20 8.7
2016-Feb-07 08:13N 40°48' W 073°50'5 8.2
2016-Feb-07 07:34N 40°47' W 073°56'5 5.5
2016-Feb-07 06:33N 40°42' W 074°00'5 4.7
2016-Feb-07 05:33N 40°39' W 074°05'0 0.0
2016-Feb-07 04:30N 40°39' W 074°05'0 0.0
2016-Feb-07 03:33N 40°39' W 074°05'0 0.0
2016-Feb-07 02:33N 40°39' W 074°05'0 0.0
2016-Feb-07 01:33N 40°39' W 074°05'0 0.0
2016-Feb-07 00:33N 40°39' W 074°05'0 0.0
2016-Feb-06 23:33N 40°39' W 074°05'0 0.0
2016-Feb-06 22:33N 40°39' W 074°05'0 0.0
2016-Feb-06 21:33N 40°39' W 074°05'1 1.2
2016-Feb-06 20:33N 40°39' W 074°07'0 0.1
2016-Feb-06 19:34N 40°39' W 074°07'0 0.0
2016-Feb-06 18:30N 40°39' W 074°07'0 0.0
2016-Feb-06 17:34N 40°39' W 074°07'1 1.2
2016-Feb-06 16:33N 40°39' W 074°05'2 2.1
2016-Feb-06 15:34N 40°38' W 074°08'0 0.0
2016-Feb-06 14:34N 40°38' W 074°08'0 0.0
2016-Feb-06 13:33N 40°38' W 074°08'2 2.2
2016-Feb-06 12:33N 40°39' W 074°05'0 0.1
2016-Feb-06 11:33N 40°39' W 074°05'0 0.0
2016-Feb-06 10:34N 40°39' W 074°05'0 0.0
2016-Feb-06 09:34N 40°39' W 074°05'0 0.0
2016-Feb-06 08:33N 40°39' W 074°05'2 2.1
2016-Feb-06 07:33N 40°38' W 074°08'0 0.0
2016-Feb-06 06:33N 40°38' W 074°08'2 2.1
2016-Feb-06 05:33N 40°39' W 074°05'3 3.3
2016-Feb-06 04:33N 40°40' W 074°01'0 0.0
2016-Feb-06 03:33N 40°40' W 074°01'0 0.0
2016-Feb-06 02:33N 40°40' W 074°01'0 0.0
2016-Feb-06 01:33N 40°40' W 074°01'3 3.3
2016-Feb-06 00:33N 40°39' W 074°05'0 0.0
2016-Feb-05 23:33N 40°39' W 074°05'1 0.8
2016-Feb-05 22:33N 40°39' W 074°04'1 0.8
2016-Feb-05 21:33N 40°39' W 074°03'1 0.8
2016-Feb-05 20:33N 40°40' W 074°03'6 6.5
2016-Feb-05 19:33N 40°45' W 073°58'18 5.7
2016-Feb-05 16:29N 40°55' W 073°39'8 8.9
2016-Feb-05 15:33N 40°59' W 073°29'1010.3
2016-Feb-05 14:33N 41°01' W 073°16'2510.7
2016-Feb-05 12:11N 41°06' W 072°43'711.2
2016-Feb-05 11:33N 41°08' W 072°34'1312.8
2016-Feb-05 10:33N 41°12' W 072°18'97 7.9
2016-Feb-04 22:16N 42°20' W 070°44'7 9.9
2016-Feb-04 21:33N 42°23' W 070°53'7 7.3
2016-Feb-04 20:33N 42°23' W 071°03'1 0.0
2016-Feb-04 06:34N 42°23' W 071°03'2 1.3
2016-Feb-04 05:08N 42°22' W 071°02'0 0.0
2016-Feb-04 04:32N 42°22' W 071°02'0 0.1
2016-Feb-04 03:26N 42°22' W 071°02'0 0.1
2016-Feb-04 02:32N 42°22' W 071°02'0 0.0
2016-Feb-04 01:26N 42°22' W 071°02'0 0.0
2016-Feb-04 00:20N 42°22' W 071°02'0 0.0
2016-Feb-03 23:28N 42°22' W 071°02'0 0.0
2016-Feb-03 22:19N 42°22' W 071°02'0 0.0
2016-Feb-03 21:31N 42°22' W 071°02'0 0.0
2016-Feb-03 20:28N 42°22' W 071°02'0 0.0
2016-Feb-03 19:25N 42°22' W 071°02'0 0.0
2016-Feb-03 18:31N 42°22' W 071°02'0 0.0
2016-Feb-03 17:31N 42°22' W 071°02'0 0.0
2016-Feb-03 16:31N 42°22' W 071°02'0 0.0
2016-Feb-03 15:19N 42°22' W 071°02'0 0.0
2016-Feb-03 14:25N 42°22' W 071°02'0 0.0
2016-Feb-03 13:28N 42°22' W 071°02'0 0.0
2016-Feb-03 12:33N 42°22' W 071°02'0 0.0
2016-Feb-03 11:33N 42°22' W 071°02'0 0.0
2016-Feb-03 10:34N 42°22' W 071°02'0 0.0
2016-Feb-03 09:33N 42°22' W 071°02'0 0.0
2016-Feb-03 08:33N 42°22' W 071°02'0 0.0
2016-Feb-03 07:33N 42°22' W 071°02'0 0.0
2016-Feb-03 06:34N 42°22' W 071°02'0 0.1
2016-Feb-03 05:33N 42°22' W 071°02'0 0.1
2016-Feb-03 04:33N 42°21' W 071°02'0 0.0
2016-Feb-03 03:33N 42°21' W 071°02'0 0.0
2016-Feb-03 02:33N 42°21' W 071°02'4 4.2
2016-Feb-03 01:34N 42°20' W 070°57'58 6.1
2016-Feb-02 16:07N 41°26' W 071°22'6 9.9
2016-Feb-02 15:33N 41°31' W 071°20'1010.3
2016-Feb-02 14:33N 41°41' W 071°19'6 6.3
2016-Feb-02 13:33N 41°47' W 071°22'0 0.0
2016-Feb-02 12:33N 41°47' W 071°22'0 0.0
2016-Feb-02 11:33N 41°47' W 071°22'0 0.0
2016-Feb-02 10:33N 41°47' W 071°22'0 0.0
2016-Feb-02 09:33N 41°47' W 071°22'0 0.0
2016-Feb-02 08:33N 41°47' W 071°22'  
Track history (hours):
 
Tides and Currents Weather Stations Pressure Air Temp Water Temp Dewpoint Dewpoint Depression Visibility Wind Speed Wind Dir Waves Ship Positions

Austin Reinauer

Owner: REINAUER TRANSPORTATION CO, LP, STATEN ISLAND, NY. More information available from US FCC via Universal Licensing System and Coast Guard Vessel Documentation Center.

Last reported at 2016-Feb-12 08:13 UTC. Time now 2016-Feb-12 09:53 UTC.
Position N 40°52' W 073°57'.

Length 33 m; draft 6.7 m.

Type: Ship (hazmat cat B). MMSI: 366739920.

Date/timePositionNaut miles runAvg speedWind from/ knotsBaromVisibWave heightAir tempDewpointWater temp
2016-Feb-12 08:13N 40°52' W 073°57'5 7.1
2016-Feb-12 07:31N 40°47' W 073°59'8 8.1
2016-Feb-12 06:34N 40°40' W 074°03'8 0.3
2016-Feb-11 00:29N 40°37' W 074°12'6 6.2
2016-Feb-10 23:33N 40°39' W 074°05'2 2.3
2016-Feb-10 22:29N 40°40' W 074°02'0 0.0
2016-Feb-10 21:26N 40°40' W 074°02'0 0.1
2016-Feb-10 20:32N 40°40' W 074°02'0 0.0
2016-Feb-10 19:23N 40°40' W 074°02'0 0.0
2016-Feb-10 18:29N 40°40' W 074°02'0 0.1
2016-Feb-10 17:29N 40°40' W 074°02'0 0.1
2016-Feb-10 16:20N 40°40' W 074°02'0 0.0
2016-Feb-10 15:29N 40°40' W 074°02'0 0.0
2016-Feb-10 14:32N 40°40' W 074°02'0 0.0
2016-Feb-10 13:32N 40°40' W 074°02'0 0.0
2016-Feb-10 12:32N 40°40' W 074°02'0 0.0
2016-Feb-10 11:32N 40°40' W 074°02'0 0.1
2016-Feb-10 10:32N 40°40' W 074°02'0 0.1
2016-Feb-10 09:32N 40°40' W 074°02'0 0.0
2016-Feb-10 08:32N 40°40' W 074°02'0 0.0
2016-Feb-10 07:32N 40°40' W 074°02'0 0.0
2016-Feb-10 06:32N 40°40' W 074°02'27 8.8
2016-Feb-10 03:31N 40°56' W 073°35'1111.3
2016-Feb-10 02:33N 41°01' W 073°22'1211.5
2016-Feb-10 01:32N 41°02' W 073°06'1311.4
2016-Feb-10 00:23N 41°05' W 072°49'911.0
2016-Feb-09 23:34N 41°07' W 072°38'1110.6
2016-Feb-09 22:34N 41°10' W 072°24'9 9.0
2016-Feb-09 21:33N 41°13' W 072°13'38 8.6
2016-Feb-09 17:10N 41°24' W 071°24'711.5
2016-Feb-09 16:33N 41°31' W 071°21'1111.2
2016-Feb-09 15:33N 41°40' W 071°12'1 0.4
2016-Feb-09 14:13N 41°40' W 071°12'0 0.0
2016-Feb-09 13:33N 41°40' W 071°12'0 0.0
2016-Feb-09 12:33N 41°40' W 071°12'0 0.0
2016-Feb-09 11:33N 41°40' W 071°12'0 0.0
2016-Feb-09 10:33N 41°40' W 071°12'0 0.0
2016-Feb-09 09:33N 41°40' W 071°12'0 0.0
2016-Feb-09 08:33N 41°40' W 071°12'0 0.1
2016-Feb-09 07:33N 41°40' W 071°12'8 7.8
2016-Feb-09 06:32N 41°34' W 071°19'37 7.4
2016-Feb-09 01:30N 41°14' W 072°01'7 7.4
2016-Feb-09 00:34N 41°14' W 072°10'8 8.2
2016-Feb-08 23:33N 41°11' W 072°20'9 9.2
2016-Feb-08 22:33N 41°08' W 072°32'20 0.6
2016-Feb-07 13:26N 41°10' W 072°58'7 8.2
2016-Feb-07 12:33N 41°06' W 073°06'8 8.4
2016-Feb-07 11:33N 41°03' W 073°16'9 8.8
2016-Feb-07 10:33N 40°59' W 073°27'20 8.7
2016-Feb-07 08:13N 40°48' W 073°50'5 8.2
2016-Feb-07 07:34N 40°47' W 073°56'5 5.5
2016-Feb-07 06:33N 40°42' W 074°00'5 4.7
2016-Feb-07 05:33N 40°39' W 074°05'0 0.0
2016-Feb-07 04:30N 40°39' W 074°05'0 0.0
2016-Feb-07 03:33N 40°39' W 074°05'0 0.0
2016-Feb-07 02:33N 40°39' W 074°05'0 0.0
2016-Feb-07 01:33N 40°39' W 074°05'0 0.0
2016-Feb-07 00:33N 40°39' W 074°05'0 0.0
2016-Feb-06 23:33N 40°39' W 074°05'0 0.0
2016-Feb-06 22:33N 40°39' W 074°05'0 0.0
2016-Feb-06 21:33N 40°39' W 074°05'1 1.2
2016-Feb-06 20:33N 40°39' W 074°07'0 0.1
2016-Feb-06 19:34N 40°39' W 074°07'0 0.0
2016-Feb-06 18:30N 40°39' W 074°07'0 0.0
2016-Feb-06 17:34N 40°39' W 074°07'1 1.2
2016-Feb-06 16:33N 40°39' W 074°05'2 2.1
2016-Feb-06 15:34N 40°38' W 074°08'0 0.0
2016-Feb-06 14:34N 40°38' W 074°08'0 0.0
2016-Feb-06 13:33N 40°38' W 074°08'2 2.2
2016-Feb-06 12:33N 40°39' W 074°05'0 0.1
2016-Feb-06 11:33N 40°39' W 074°05'0 0.0
2016-Feb-06 10:34N 40°39' W 074°05'0 0.0
2016-Feb-06 09:34N 40°39' W 074°05'0 0.0
2016-Feb-06 08:33N 40°39' W 074°05'2 2.1
2016-Feb-06 07:33N 40°38' W 074°08'0 0.0
2016-Feb-06 06:33N 40°38' W 074°08'2 2.1
2016-Feb-06 05:33N 40°39' W 074°05'3 3.3
2016-Feb-06 04:33N 40°40' W 074°01'0 0.0
2016-Feb-06 03:33N 40°40' W 074°01'0 0.0
2016-Feb-06 02:33N 40°40' W 074°01'0 0.0
2016-Feb-06 01:33N 40°40' W 074°01'3 3.3
2016-Feb-06 00:33N 40°39' W 074°05'0 0.0
2016-Feb-05 23:33N 40°39' W 074°05'1 0.8
2016-Feb-05 22:33N 40°39' W 074°04'1 0.8
2016-Feb-05 21:33N 40°39' W 074°03'1 0.8
2016-Feb-05 20:33N 40°40' W 074°03'6 6.5
2016-Feb-05 19:33N 40°45' W 073°58'18 5.7
2016-Feb-05 16:29N 40°55' W 073°39'8 8.9
2016-Feb-05 15:33N 40°59' W 073°29'1010.3
2016-Feb-05 14:33N 41°01' W 073°16'2510.7
2016-Feb-05 12:11N 41°06' W 072°43'711.2
2016-Feb-05 11:33N 41°08' W 072°34'1312.8
2016-Feb-05 10:33N 41°12' W 072°18'97 7.9
2016-Feb-04 22:16N 42°20' W 070°44'7 9.9
2016-Feb-04 21:33N 42°23' W 070°53'7 7.3
2016-Feb-04 20:33N 42°23' W 071°03'1 0.0
2016-Feb-04 06:34N 42°23' W 071°03'2 1.3
2016-Feb-04 05:08N 42°22' W 071°02'0 0.0
2016-Feb-04 04:32N 42°22' W 071°02'0 0.1
2016-Feb-04 03:26N 42°22' W 071°02'0 0.1
2016-Feb-04 02:32N 42°22' W 071°02'0 0.0
2016-Feb-04 01:26N 42°22' W 071°02'0 0.0
2016-Feb-04 00:20N 42°22' W 071°02'0 0.0
2016-Feb-03 23:28N 42°22' W 071°02'0 0.0
2016-Feb-03 22:19N 42°22' W 071°02'0 0.0
2016-Feb-03 21:31N 42°22' W 071°02'0 0.0
2016-Feb-03 20:28N 42°22' W 071°02'0 0.0
2016-Feb-03 19:25N 42°22' W 071°02'0 0.0
2016-Feb-03 18:31N 42°22' W 071°02'0 0.0
2016-Feb-03 17:31N 42°22' W 071°02'0 0.0
2016-Feb-03 16:31N 42°22' W 071°02'0 0.0
2016-Feb-03 15:19N 42°22' W 071°02'0 0.0
2016-Feb-03 14:25N 42°22' W 071°02'0 0.0
2016-Feb-03 13:28N 42°22' W 071°02'0 0.0
2016-Feb-03 12:33N 42°22' W 071°02'0 0.0
2016-Feb-03 11:33N 42°22' W 071°02'0 0.0
2016-Feb-03 10:34N 42°22' W 071°02'0 0.0
2016-Feb-03 09:33N 42°22' W 071°02'0 0.0
2016-Feb-03 08:33N 42°22' W 071°02'0 0.0
2016-Feb-03 07:33N 42°22' W 071°02'0 0.0
2016-Feb-03 06:34N 42°22' W 071°02'0 0.1
2016-Feb-03 05:33N 42°22' W 071°02'0 0.1
2016-Feb-03 04:33N 42°21' W 071°02'0 0.0
2016-Feb-03 03:33N 42°21' W 071°02'0 0.0
2016-Feb-03 02:33N 42°21' W 071°02'4 4.2
2016-Feb-03 01:34N 42°20' W 070°57'58 6.1
2016-Feb-02 16:07N 41°26' W 071°22'6 9.9
2016-Feb-02 15:33N 41°31' W 071°20'1010.3
2016-Feb-02 14:33N 41°41' W 071°19'6 6.3
2016-Feb-02 13:33N 41°47' W 071°22'0 0.0
2016-Feb-02 12:33N 41°47' W 071°22'0 0.0
2016-Feb-02 11:33N 41°47' W 071°22'0 0.0
2016-Feb-02 10:33N 41°47' W 071°22'0 0.0
2016-Feb-02 09:33N 41°47' W 071°22'0 0.0
2016-Feb-02 08:33N 41°47' W 071°22'  

Dump ship's entire track history